createdAt,value
2019-05-22T00:01:28.877Z,92.96
2019-05-22T00:06:39.373Z,93.10
2019-05-22T00:11:46.054Z,93.02
2019-05-22T00:16:51.401Z,92.91
2019-05-22T00:22:03.024Z,92.40
2019-05-22T00:27:09.523Z,93.31
2019-05-22T00:32:16.330Z,94.39
2019-05-22T00:37:21.023Z,94.01
2019-05-22T00:42:27.451Z,94.39
2019-05-22T00:47:33.915Z,95.13
2019-05-22T00:52:47.067Z,94.93
2019-05-22T00:58:04.698Z,95.01
2019-05-22T01:03:16.543Z,95.18
2019-05-22T01:08:24.338Z,95.18
2019-05-22T01:13:33.198Z,94.96
2019-05-22T01:18:39.230Z,95.25
2019-05-22T01:23:46.098Z,95.23
2019-05-22T01:28:51.241Z,95.08
2019-05-22T01:34:02.618Z,94.72
2019-05-22T01:39:24.228Z,94.46
2019-05-22T01:44:30.339Z,95.15
2019-05-22T01:49:38.880Z,95.27
2019-05-22T01:54:45.475Z,95.31
2019-05-22T01:59:51.588Z,95.21
2019-05-22T02:04:58.367Z,95.99
2019-05-22T02:10:04.195Z,96.53
2019-05-22T02:15:11.063Z,95.71
2019-05-22T02:20:17.878Z,95.99
2019-05-22T02:25:24.324Z,96.12
2019-05-22T02:30:30.882Z,96.12
2019-05-22T02:35:37.006Z,96.40
2019-05-22T02:40:44.191Z,96.40
2019-05-22T02:45:49.915Z,96.26
2019-05-22T02:50:54.979Z,95.40
2019-05-22T02:56:00.288Z,95.69
2019-05-22T03:01:06.553Z,95.42
2019-05-22T03:06:13.886Z,95.69
2019-05-22T03:11:18.943Z,95.49
2019-05-22T03:16:26.604Z,95.39
2019-05-22T03:21:31.472Z,94.74
2019-05-22T03:26:48.302Z,95.14
2019-05-22T03:31:54.008Z,95.06
2019-05-22T03:36:59.029Z,95.45
2019-05-22T03:42:04.448Z,95.00
2019-05-22T03:47:11.303Z,93.82
2019-05-22T03:52:17.316Z,93.72
2019-05-22T03:57:23.024Z,93.73
2019-05-22T04:02:28.663Z,93.65
2019-05-22T04:07:34.954Z,94.23
2019-05-22T04:12:40.308Z,93.88
2019-05-22T04:17:48.141Z,93.82
2019-05-22T04:22:58.041Z,93.61
2019-05-22T04:28:02.817Z,93.00
2019-05-22T04:33:08.291Z,92.69
2019-05-22T04:38:13.328Z,92.37
2019-05-22T04:43:21.387Z,92.62
2019-05-22T04:48:29.459Z,93.64
2019-05-22T04:53:34.365Z,93.54
2019-05-22T04:58:39.629Z,94.08
2019-05-22T05:03:44.338Z,93.42
2019-05-22T05:08:49.649Z,92.99
2019-05-22T05:13:54.957Z,92.61
2019-05-22T05:19:00.859Z,92.09
2019-05-22T05:24:05.771Z,92.48
2019-05-22T05:29:22.263Z,92.63
2019-05-22T05:34:36.915Z,93.46
2019-05-22T05:40:19.577Z,93.22
2019-05-22T05:45:25.031Z,93.41
2019-05-22T05:50:39.409Z,93.68
2019-05-22T05:55:53.308Z,93.71
2019-05-22T06:01:03.098Z,93.31
2019-05-22T06:06:25.214Z,93.11
2019-05-22T06:11:49.482Z,92.42
2019-05-22T06:17:12.491Z,92.44
2019-05-22T06:22:17.387Z,91.99
2019-05-22T06:27:30.773Z,91.30
2019-05-22T06:33:03.254Z,90.71
2019-05-22T06:38:20.759Z,89.75
2019-05-22T06:43:53.324Z,88.73
2019-05-22T06:49:02.243Z,87.49
2019-05-22T06:54:07.104Z,86.40
2019-05-22T06:59:13.031Z,85.34
2019-05-22T07:04:18.795Z,82.62
2019-05-22T07:09:24.692Z,80.96
2019-05-22T07:14:31.762Z,81.25
2019-05-22T07:19:37.246Z,83.68
2019-05-22T07:24:42.170Z,86.45
2019-05-22T07:29:47.083Z,87.50
2019-05-22T07:34:52.376Z,87.33
2019-05-22T07:39:57.504Z,84.99
2019-05-22T07:45:02.500Z,83.05
2019-05-22T07:50:07.940Z,82.37
2019-05-22T07:55:14.882Z,80.49
2019-05-22T08:00:21.822Z,80.80
2019-05-22T08:05:28.389Z,81.19
2019-05-22T08:10:34.729Z,83.69
2019-05-22T08:15:39.899Z,84.09
2019-05-22T08:20:45.185Z,79.01
2019-05-22T08:25:50.221Z,76.97
2019-05-22T08:30:55.703Z,75.82
2019-05-22T08:36:01.431Z,73.79
2019-05-22T08:41:10.041Z,72.20
2019-05-22T08:46:15.021Z,69.19
2019-05-22T08:51:20.148Z,66.16
2019-05-22T08:56:25.619Z,64.05
2019-05-22T09:01:32.159Z,61.69
2019-05-22T09:06:37.221Z,56.60
2019-05-22T09:11:42.042Z,51.07
2019-05-22T09:16:47.821Z,44.32
2019-05-22T09:21:52.801Z,41.64
2019-05-22T09:26:58.023Z,38.73
2019-05-22T09:32:04.065Z,37.44
2019-05-22T09:37:09.718Z,34.39
2019-05-22T09:42:15.487Z,34.73
2019-05-22T09:47:25.571Z,32.95
2019-05-22T09:52:31.551Z,31.97
2019-05-22T09:57:36.823Z,30.67
2019-05-22T10:02:42.323Z,33.00
2019-05-22T10:07:59.254Z,30.18
2019-05-22T10:12:55.143Z,34.14
2019-05-22T10:18:01.074Z,31.13
2019-05-22T10:23:15.315Z,35.08
2019-05-22T10:28:15.730Z,42.37
2019-05-22T10:33:20.599Z,36.76
2019-05-22T10:38:25.730Z,38.16
2019-05-22T10:43:31.960Z,38.57
2019-05-22T10:48:40.214Z,35.57
2019-05-22T10:53:44.502Z,42.79
2019-05-22T10:58:49.524Z,44.00
2019-05-22T11:03:54.991Z,42.42
2019-05-22T11:09:00.142Z,42.20
2019-05-22T11:14:09.513Z,44.28
2019-05-22T11:19:14.228Z,41.60
2019-05-22T11:24:19.622Z,39.16
2019-05-22T11:29:24.723Z,39.72
2019-05-22T11:34:29.902Z,40.17
2019-05-22T11:39:39.240Z,50.17
2019-05-22T11:44:42.262Z,55.17
2019-05-22T11:49:47.208Z,56.98
2019-05-22T11:54:52.218Z,55.38
2019-05-22T11:59:57.022Z,53.09
2019-05-22T12:05:02.932Z,47.41
2019-05-22T12:10:09.179Z,43.12
2019-05-22T12:15:16.121Z,42.31
2019-05-22T12:20:23.050Z,39.88
2019-05-22T12:25:29.031Z,34.43
2019-05-22T12:30:34.135Z,33.64
2019-05-22T12:35:41.539Z,32.76
2019-05-22T12:40:46.751Z,35.51
2019-05-22T12:45:51.831Z,33.66
2019-05-22T12:50:58.273Z,32.99
2019-05-22T12:56:03.801Z,32.99
2019-05-22T13:01:09.106Z,36.40
2019-05-22T13:06:14.628Z,38.79
2019-05-22T13:11:19.969Z,38.79
2019-05-22T13:16:25.086Z,40.01
2019-05-22T13:21:34.302Z,37.26
2019-05-22T13:26:40.877Z,38.36
2019-05-22T13:31:48.574Z,41.28
2019-05-22T13:36:56.807Z,40.48
2019-05-22T13:42:00.718Z,40.69
2019-05-22T13:47:07.753Z,37.27
2019-05-22T13:52:13.001Z,37.04
2019-05-22T13:57:18.162Z,34.56
2019-05-22T14:02:27.164Z,34.27
2019-05-22T14:07:31.381Z,34.70
2019-05-22T14:12:37.236Z,30.91
2019-05-22T14:17:42.790Z,35.70
2019-05-22T14:22:47.832Z,39.91
2019-05-22T14:27:52.921Z,39.53
2019-05-22T14:33:04.398Z,41.01
2019-05-22T14:38:08.567Z,42.77
2019-05-22T14:43:13.582Z,37.11
2019-05-22T14:48:18.865Z,40.98
2019-05-22T14:53:23.764Z,41.83
2019-05-22T14:58:29.262Z,42.92
2019-05-22T15:03:34.357Z,39.44
2019-05-22T15:08:39.353Z,39.88
2019-05-22T15:13:44.599Z,44.48
2019-05-22T15:18:49.794Z,45.10
2019-05-22T15:23:55.391Z,47.35
2019-05-22T15:29:00.556Z,42.69
2019-05-22T15:34:06.154Z,43.74
2019-05-22T15:39:12.703Z,45.19
2019-05-22T15:44:19.595Z,47.24
2019-05-22T15:49:26.339Z,49.57
2019-05-22T15:54:33.983Z,47.87
2019-05-22T15:59:40.570Z,51.35
2019-05-22T16:04:45.441Z,50.76
2019-05-22T16:09:52.063Z,49.10
2019-05-22T16:14:59.227Z,49.17
2019-05-22T16:20:05.241Z,49.37
2019-05-22T16:25:11.073Z,48.69
2019-05-22T16:30:16.603Z,48.46
2019-05-22T16:35:22.132Z,49.13
2019-05-22T16:40:28.148Z,50.00
2019-05-22T16:45:35.004Z,50.53
2019-05-22T16:50:42.934Z,50.12
2019-05-22T16:55:48.358Z,50.58
2019-05-22T17:00:56.991Z,50.21
2019-05-22T17:06:02.139Z,51.38
2019-05-22T17:11:08.234Z,53.98
2019-05-22T17:16:13.629Z,54.92
2019-05-22T17:21:19.451Z,55.73
2019-05-22T17:26:24.583Z,52.46
2019-05-22T17:31:30.259Z,51.62
2019-05-22T17:36:35.958Z,49.73
2019-05-22T17:41:42.739Z,48.04
2019-05-22T17:46:48.802Z,49.90
2019-05-22T17:51:54.098Z,50.38
2019-05-22T17:56:59.230Z,50.33
2019-05-22T18:02:05.744Z,52.12
2019-05-22T18:07:10.837Z,52.15
2019-05-22T18:12:16.190Z,52.84
2019-05-22T18:17:21.708Z,52.12
2019-05-22T18:22:27.151Z,53.96
2019-05-22T18:27:32.690Z,54.83
2019-05-22T18:32:42.046Z,55.37
2019-05-22T18:37:47.147Z,56.07
2019-05-22T18:42:52.406Z,57.76
2019-05-22T18:47:57.644Z,63.33
2019-05-22T18:53:03.425Z,64.93
2019-05-22T18:58:08.435Z,65.85
2019-05-22T19:03:14.459Z,65.41
2019-05-22T19:08:19.835Z,65.96
2019-05-22T19:13:24.823Z,65.85
2019-05-22T19:18:29.734Z,66.17
2019-05-22T19:23:34.890Z,66.52
2019-05-22T19:28:44.074Z,67.42
2019-05-22T19:33:47.252Z,68.75
2019-05-22T19:38:52.582Z,69.72
2019-05-22T19:43:57.766Z,70.27
2019-05-22T19:49:03.088Z,70.75
2019-05-22T19:54:08.459Z,72.35
2019-05-22T19:59:13.766Z,72.19
2019-05-22T20:04:19.215Z,72.56
2019-05-22T20:09:25.675Z,73.30
2019-05-22T20:14:31.383Z,73.67
2019-05-22T20:19:36.547Z,74.49
2019-05-22T20:24:41.742Z,73.36
2019-05-22T20:29:47.575Z,73.36
2019-05-22T20:34:52.663Z,71.87
2019-05-22T20:39:57.506Z,70.95
2019-05-22T20:45:05.202Z,70.33
2019-05-22T20:50:11.565Z,70.38
2019-05-22T20:55:16.555Z,69.98
2019-05-22T21:00:22.225Z,70.14
2019-05-22T21:05:27.166Z,71.02
2019-05-22T21:10:33.667Z,72.17
2019-05-22T21:15:38.983Z,72.07
2019-05-22T21:20:54.565Z,72.74
2019-05-22T21:25:52.535Z,73.90
2019-05-22T21:30:57.922Z,74.19
2019-05-22T21:36:03.695Z,74.91
2019-05-22T21:41:09.706Z,75.02
2019-05-22T21:46:16.026Z,75.17
2019-05-22T21:51:22.023Z,75.75
2019-05-22T21:56:27.725Z,75.56
2019-05-22T22:01:36.507Z,75.08
2019-05-22T22:06:42.224Z,75.90
2019-05-22T22:11:47.558Z,76.85
2019-05-22T22:16:52.319Z,76.74
2019-05-22T22:21:57.294Z,76.78
2019-05-22T22:27:02.765Z,76.83
2019-05-22T22:32:11.385Z,77.01
2019-05-22T22:37:17.772Z,77.35
2019-05-22T22:42:26.725Z,77.21
2019-05-22T22:47:42.268Z,77.65
2019-05-22T22:52:48.786Z,77.15
2019-05-22T22:57:53.600Z,76.35
2019-05-22T23:03:00.245Z,76.61
2019-05-22T23:08:06.149Z,76.58
2019-05-22T23:13:11.205Z,76.06
2019-05-22T23:18:33.165Z,76.01
2019-05-22T23:23:36.230Z,76.50
2019-05-22T23:28:44.003Z,76.40
2019-05-22T23:33:50.088Z,76.59
2019-05-22T23:38:55.472Z,77.08
2019-05-22T23:44:01.006Z,76.93
2019-05-22T23:49:06.637Z,76.07
2019-05-22T23:54:13.031Z,75.68
2019-05-22T23:59:19.728Z,76.24
